sensor_id;sensor_type;location;lat;lon;timestamp;P1;durP1;ratioP1;P2;durP2;ratioP2
22515;SDS011;11424;48.860;9.624;2023-11-22T00:02:56;69;;;76.3;;
22515;SDS011;11424;48.860;9.624;2023-11-22T00:07:56;77.2;;;85.9;;
22515;SDS011;11424;48.860;9.624;2023-11-22T00:12:56;59.1;;;65.7;;
22515;SDS011;11424;48.860;9.624;2023-11-22T00:17:56;76.2;;;84.4;;
22515;SDS011;11424;48.860;9.624;2023-11-22T00:22:56;71.4;;;78.7;;
22515;SDS011;11424;48.860;9.624;2023-11-22T00:27:56;232.4;;;465.9;;
22515;SDS011;11424;48.860;9.624;2023-11-22T00:32:56;200.3;;;437;;
22515;SDS011;11424;48.860;9.624;2023-11-22T00:37:56;300.5;;;635.1;;
22515;SDS011;11424;48.860;9.624;2023-11-22T00:42:56;262;;;582;;
22515;SDS011;11424;48.860;9.624;2023-11-22T00:47:56;267.2;;;590.2;;
22515;SDS011;11424;48.860;9.624;2023-11-22T00:52:56;264.8;;;563.2;;
22515;SDS011;11424;48.860;9.624;2023-11-22T00:57:56;93.4;;;104;;
22515;SDS011;11424;48.860;9.624;2023-11-22T01:02:56;206;;;425;;
22515;SDS011;11424;48.860;9.624;2023-11-22T01:07:56;184.2;;;398.5;;
22515;SDS011;11424;48.860;9.624;2023-11-22T01:12:56;190.6;;;390;;
22515;SDS011;11424;48.860;9.624;2023-11-22T01:17:56;269.4;;;586.6;;
22515;SDS011;11424;48.860;9.624;2023-11-22T01:22:56;329.8;;;703;;
22515;SDS011;11424;48.860;9.624;2023-11-22T01:27:56;268.6;;;606.4;;
22515;SDS011;11424;48.860;9.624;2023-11-22T01:32:56;252.8;;;590;;
22515;SDS011;11424;48.860;9.624;2023-11-22T01:37:56;248;;;580.5;;
22515;SDS011;11424;48.860;9.624;2023-11-22T01:42:56;222.4;;;554.6;;
22515;SDS011;11424;48.860;9.624;2023-11-22T01:47:56;225.2;;;556.6;;
22515;SDS011;11424;48.860;9.624;2023-11-22T01:52:56;229.4;;;563.4;;
22515;SDS011;11424;48.860;9.624;2023-11-22T01:57:56;253;;;591.7;;
22515;SDS011;11424;48.860;9.624;2023-11-22T02:02:56;250.5;;;583.4;;
22515;SDS011;11424;48.860;9.624;2023-11-22T02:07:56;242.9;;;573.4;;
22515;SDS011;11424;48.860;9.624;2023-11-22T02:12:56;258.2;;;592.9;;
22515;SDS011;11424;48.860;9.624;2023-11-22T02:17:56;252.5;;;587;;
22515;SDS011;11424;48.860;9.624;2023-11-22T02:22:56;238.5;;;575.2;;
22515;SDS011;11424;48.860;9.624;2023-11-22T02:27:56;233.1;;;560.6;;
22515;SDS011;11424;48.860;9.624;2023-11-22T02:32:56;226;;;561;;
22515;SDS011;11424;48.860;9.624;2023-11-22T02:37:56;240.8;;;581.2;;
22515;SDS011;11424;48.860;9.624;2023-11-22T02:42:56;289.2;;;668.1;;
22515;SDS011;11424;48.860;9.624;2023-11-22T02:47:56;298;;;695.7;;
22515;SDS011;11424;48.860;9.624;2023-11-22T02:52:56;303.7;;;705.1;;
22515;SDS011;11424;48.860;9.624;2023-11-22T02:57:56;306.4;;;706.7;;
22515;SDS011;11424;48.860;9.624;2023-11-22T03:02:56;312.1;;;710.2;;
22515;SDS011;11424;48.860;9.624;2023-11-22T03:07:56;311.5;;;715.8;;
22515;SDS011;11424;48.860;9.624;2023-11-22T03:12:56;319.6;;;712.2;;
22515;SDS011;11424;48.860;9.624;2023-11-22T03:17:56;321.1;;;705.2;;
22515;SDS011;11424;48.860;9.624;2023-11-22T03:22:56;318.5;;;695.6;;
22515;SDS011;11424;48.860;9.624;2023-11-22T03:27:56;316.7;;;692;;
22515;SDS011;11424;48.860;9.624;2023-11-22T03:32:56;306.4;;;685.7;;
22515;SDS011;11424;48.860;9.624;2023-11-22T03:37:56;318.9;;;708;;
22515;SDS011;11424;48.860;9.624;2023-11-22T03:42:56;304.1;;;657.4;;
22515;SDS011;11424;48.860;9.624;2023-11-22T03:47:56;283.7;;;614;;
22515;SDS011;11424;48.860;9.624;2023-11-22T03:52:56;279.2;;;608;;
22515;SDS011;11424;48.860;9.624;2023-11-22T03:57:56;281.1;;;607;;
22515;SDS011;11424;48.860;9.624;2023-11-22T04:02:56;275.9;;;596.9;;
22515;SDS011;11424;48.860;9.624;2023-11-22T04:07:56;267.6;;;584.2;;
22515;SDS011;11424;48.860;9.624;2023-11-22T04:12:56;251.7;;;550.9;;
22515;SDS011;11424;48.860;9.624;2023-11-22T04:17:56;253;;;560;;
22515;SDS011;11424;48.860;9.624;2023-11-22T04:22:56;293.5;;;644.1;;
22515;SDS011;11424;48.860;9.624;2023-11-22T04:27:56;278.8;;;607.2;;
22515;SDS011;11424;48.860;9.624;2023-11-22T04:32:56;277.9;;;616.7;;
22515;SDS011;11424;48.860;9.624;2023-11-22T04:37:56;283;;;625.3;;
22515;SDS011;11424;48.860;9.624;2023-11-22T04:42:56;283.9;;;629;;
22515;SDS011;11424;48.860;9.624;2023-11-22T04:47:56;287;;;622.6;;
22515;SDS011;11424;48.860;9.624;2023-11-22T04:52:56;286.5;;;626.1;;
22515;SDS011;11424;48.860;9.624;2023-11-22T04:57:56;283.1;;;618;;
22515;SDS011;11424;48.860;9.624;2023-11-22T05:02:56;272.8;;;602.8;;
22515;SDS011;11424;48.860;9.624;2023-11-22T05:07:56;273.5;;;597.3;;
22515;SDS011;11424;48.860;9.624;2023-11-22T05:12:56;285.5;;;621.7;;
22515;SDS011;11424;48.860;9.624;2023-11-22T05:17:56;301.3;;;658.3;;
22515;SDS011;11424;48.860;9.624;2023-11-22T05:22:56;298.7;;;705.3;;
22515;SDS011;11424;48.860;9.624;2023-11-22T05:27:56;300.4;;;706.1;;
22515;SDS011;11424;48.860;9.624;2023-11-22T05:32:56;299;;;704;;
22515;SDS011;11424;48.860;9.624;2023-11-22T05:37:56;311.3;;;706.2;;
22515;SDS011;11424;48.860;9.624;2023-11-22T05:42:56;311.5;;;702.4;;
22515;SDS011;11424;48.860;9.624;2023-11-22T05:47:56;315.3;;;706.9;;
22515;SDS011;11424;48.860;9.624;2023-11-22T05:52:56;316.7;;;701.7;;
22515;SDS011;11424;48.860;9.624;2023-11-22T05:57:56;323.5;;;699.1;;
22515;SDS011;11424;48.860;9.624;2023-11-22T06:02:56;318.2;;;697.6;;
22515;SDS011;11424;48.860;9.624;2023-11-22T06:07:56;318.8;;;702;;
22515;SDS011;11424;48.860;9.624;2023-11-22T06:12:56;324.7;;;694;;
22515;SDS011;11424;48.860;9.624;2023-11-22T06:17:56;313;;;656.2;;
22515;SDS011;11424;48.860;9.624;2023-11-22T06:22:56;224.9;;;496;;
22515;SDS011;11424;48.860;9.624;2023-11-22T06:27:56;139.3;;;311.2;;
22515;SDS011;11424;48.860;9.624;2023-11-22T06:32:56;191.1;;;434.7;;
22515;SDS011;11424;48.860;9.624;2023-11-22T06:37:56;169.6;;;379;;
22515;SDS011;11424;48.860;9.624;2023-11-22T06:42:56;169.7;;;351.4;;
22515;SDS011;11424;48.860;9.624;2023-11-22T06:47:56;65.1;;;121.4;;
22515;SDS011;11424;48.860;9.624;2023-11-22T06:52:56;71.7;;;138.2;;
22515;SDS011;11424;48.860;9.624;2023-11-22T06:57:56;13.9;;;30;;
22515;SDS011;11424;48.860;9.624;2023-11-22T07:02:56;11.2;;;26.1;;
22515;SDS011;11424;48.860;9.624;2023-11-22T07:07:56;11.9;;;27;;
22515;SDS011;11424;48.860;9.624;2023-11-22T07:12:56;12.1;;;29.7;;
22515;SDS011;11424;48.860;9.624;2023-11-22T07:17:56;9.6;;;22.9;;
22515;SDS011;11424;48.860;9.624;2023-11-22T07:22:56;11.9;;;28.1;;
22515;SDS011;11424;48.860;9.624;2023-11-22T07:27:56;12.6;;;28.3;;
22515;SDS011;11424;48.860;9.624;2023-11-22T07:32:56;11.1;;;14.3;;
22515;SDS011;11424;48.860;9.624;2023-11-22T07:37:56;13;;;29.3;;
22515;SDS011;11424;48.860;9.624;2023-11-22T07:42:56;16.1;;;34.4;;
22515;SDS011;11424;48.860;9.624;2023-11-22T07:47:56;14.4;;;29.4;;
22515;SDS011;11424;48.860;9.624;2023-11-22T07:52:56;16.8;;;33.7;;
22515;SDS011;11424;48.860;9.624;2023-11-22T07:57:57;19.1;;;38.8;;
22515;SDS011;11424;48.860;9.624;2023-11-22T08:02:56;15;;;27.4;;
22515;SDS011;11424;48.860;9.624;2023-11-22T08:07:56;19;;;34.7;;
22515;SDS011;11424;48.860;9.624;2023-11-22T08:12:56;21.3;;;40.3;;
22515;SDS011;11424;48.860;9.624;2023-11-22T08:17:56;19;;;35.9;;
22515;SDS011;11424;48.860;9.624;2023-11-22T08:22:56;15.8;;;31.9;;
22515;SDS011;11424;48.860;9.624;2023-11-22T08:27:56;18.7;;;38;;
22515;SDS011;11424;48.860;9.624;2023-11-22T08:32:56;19.3;;;38.2;;
22515;SDS011;11424;48.860;9.624;2023-11-22T08:37:56;19.5;;;39.5;;
22515;SDS011;11424;48.860;9.624;2023-11-22T08:42:56;18.2;;;34.6;;
22515;SDS011;11424;48.860;9.624;2023-11-22T08:47:56;18.4;;;35.6;;
22515;SDS011;11424;48.860;9.624;2023-11-22T08:52:56;16.3;;;31.1;;
22515;SDS011;11424;48.860;9.624;2023-11-22T08:57:56;19;;;37.3;;
22515;SDS011;11424;48.860;9.624;2023-11-22T09:02:56;13.1;;;18.9;;
22515;SDS011;11424;48.860;9.624;2023-11-22T09:07:56;13.3;;;17.2;;
22515;SDS011;11424;48.860;9.624;2023-11-22T09:12:56;12.1;;;18.5;;
22515;SDS011;11424;48.860;9.624;2023-11-22T09:17:56;20.2;;;40.3;;
22515;SDS011;11424;48.860;9.624;2023-11-22T09:22:56;18.2;;;35.6;;
22515;SDS011;11424;48.860;9.624;2023-11-22T09:27:57;19.7;;;39.6;;
22515;SDS011;11424;48.860;9.624;2023-11-22T09:32:57;18.9;;;36.5;;
22515;SDS011;11424;48.860;9.624;2023-11-22T09:37:57;16.8;;;30.6;;
22515;SDS011;11424;48.860;9.624;2023-11-22T09:42:57;16.7;;;30.5;;
22515;SDS011;11424;48.860;9.624;2023-11-22T09:47:57;13.5;;;19.3;;
22515;SDS011;11424;48.860;9.624;2023-11-22T09:52:58;12.7;;;18.9;;
22515;SDS011;11424;48.860;9.624;2023-11-22T09:57:57;17.7;;;30.7;;
22515;SDS011;11424;48.860;9.624;2023-11-22T10:02:57;18.8;;;35.3;;
22515;SDS011;11424;48.860;9.624;2023-11-22T10:07:56;18.1;;;34.7;;
22515;SDS011;11424;48.860;9.624;2023-11-22T10:12:56;14.4;;;27.7;;
22515;SDS011;11424;48.860;9.624;2023-11-22T10:17:57;19.8;;;38;;
22515;SDS011;11424;48.860;9.624;2023-11-22T10:22:56;18.5;;;36.7;;
22515;SDS011;11424;48.860;9.624;2023-11-22T10:27:57;12.7;;;18.2;;
22515;SDS011;11424;48.860;9.624;2023-11-22T10:32:57;12.3;;;17.5;;
22515;SDS011;11424;48.860;9.624;2023-11-22T10:37:57;18.3;;;34.7;;
22515;SDS011;11424;48.860;9.624;2023-11-22T10:42:57;18.8;;;35.9;;
22515;SDS011;11424;48.860;9.624;2023-11-22T10:47:56;18.4;;;34.9;;
22515;SDS011;11424;48.860;9.624;2023-11-22T10:52:57;21.4;;;40.1;;
22515;SDS011;11424;48.860;9.624;2023-11-22T10:57:58;25.8;;;48.7;;
22515;SDS011;11424;48.860;9.624;2023-11-22T11:02:57;19.8;;;35.7;;
22515;SDS011;11424;48.860;9.624;2023-11-22T11:07:58;19.1;;;34.8;;
22515;SDS011;11424;48.860;9.624;2023-11-22T11:12:57;12.2;;;15.9;;
22515;SDS011;11424;48.860;9.624;2023-11-22T11:17:57;18.4;;;32.8;;
22515;SDS011;11424;48.860;9.624;2023-11-22T11:22:57;15.7;;;29.8;;
22515;SDS011;11424;48.860;9.624;2023-11-22T11:27:57;20.7;;;39;;
22515;SDS011;11424;48.860;9.624;2023-11-22T11:32:57;17.8;;;34.6;;
22515;SDS011;11424;48.860;9.624;2023-11-22T11:37:59;17.6;;;34.8;;
22515;SDS011;11424;48.860;9.624;2023-11-22T11:42:57;23.9;;;48.4;;
22515;SDS011;11424;48.860;9.624;2023-11-22T11:47:57;18.3;;;34.8;;
22515;SDS011;11424;48.860;9.624;2023-11-22T11:52:57;29.6;;;64.1;;
22515;SDS011;11424;48.860;9.624;2023-11-22T11:57:57;21.6;;;40.2;;
22515;SDS011;11424;48.860;9.624;2023-11-22T12:02:57;20.1;;;38.5;;
22515;SDS011;11424;48.860;9.624;2023-11-22T12:07:57;19.7;;;34;;
22515;SDS011;11424;48.860;9.624;2023-11-22T12:12:57;18.4;;;34.9;;
22515;SDS011;11424;48.860;9.624;2023-11-22T12:17:57;21.3;;;38.4;;
22515;SDS011;11424;48.860;9.624;2023-11-22T12:22:57;21.5;;;40.6;;
22515;SDS011;11424;48.860;9.624;2023-11-22T12:27:57;18.4;;;32.9;;
22515;SDS011;11424;48.860;9.624;2023-11-22T12:32:57;19.7;;;36.7;;
22515;SDS011;11424;48.860;9.624;2023-11-22T12:37:58;16.7;;;28.4;;
22515;SDS011;11424;48.860;9.624;2023-11-22T12:42:57;12.5;;;17.8;;
22515;SDS011;11424;48.860;9.624;2023-11-22T12:47:57;13.6;;;18.6;;
22515;SDS011;11424;48.860;9.624;2023-11-22T12:52:57;13;;;16.1;;
22515;SDS011;11424;48.860;9.624;2023-11-22T12:57:57;16;;;26.1;;
22515;SDS011;11424;48.860;9.624;2023-11-22T13:02:57;19.8;;;34;;
22515;SDS011;11424;48.860;9.624;2023-11-22T13:07:57;18.5;;;31.5;;
22515;SDS011;11424;48.860;9.624;2023-11-22T13:12:57;24.3;;;41.7;;
22515;SDS011;11424;48.860;9.624;2023-11-22T13:17:57;20.1;;;32.9;;
22515;SDS011;11424;48.860;9.624;2023-11-22T13:22:57;18.2;;;28.8;;
22515;SDS011;11424;48.860;9.624;2023-11-22T13:27:57;11.7;;;18.8;;
22515;SDS011;11424;48.860;9.624;2023-11-22T13:32:57;12.1;;;16.3;;
22515;SDS011;11424;48.860;9.624;2023-11-22T13:37:57;16.7;;;24.6;;
22515;SDS011;11424;48.860;9.624;2023-11-22T13:42:57;24.5;;;41.7;;
22515;SDS011;11424;48.860;9.624;2023-11-22T13:47:57;19.4;;;30.1;;
22515;SDS011;11424;48.860;9.624;2023-11-22T13:52:57;23.2;;;37.8;;
22515;SDS011;11424;48.860;9.624;2023-11-22T13:57:57;22;;;33.1;;
22515;SDS011;11424;48.860;9.624;2023-11-22T14:02:57;27;;;42.3;;
22515;SDS011;11424;48.860;9.624;2023-11-22T14:07:57;14.8;;;27.6;;
22515;SDS011;11424;48.860;9.624;2023-11-22T14:12:57;14.7;;;28;;
22515;SDS011;11424;48.860;9.624;2023-11-22T14:17:57;14.3;;;25.8;;
22515;SDS011;11424;48.860;9.624;2023-11-22T14:22:57;22.5;;;41.9;;
22515;SDS011;11424;48.860;9.624;2023-11-22T14:27:57;22.2;;;42.6;;
22515;SDS011;11424;48.860;9.624;2023-11-22T14:32:57;22.7;;;46.5;;
22515;SDS011;11424;48.860;9.624;2023-11-22T14:37:57;21.3;;;42.1;;
22515;SDS011;11424;48.860;9.624;2023-11-22T14:42:57;21.3;;;40.5;;
22515;SDS011;11424;48.860;9.624;2023-11-22T14:47:57;21.1;;;38.7;;
22515;SDS011;11424;48.860;9.624;2023-11-22T14:52:57;15.4;;;23.4;;
22515;SDS011;11424;48.860;9.624;2023-11-22T14:57:57;13.4;;;21.4;;
22515;SDS011;11424;48.860;9.624;2023-11-22T15:02:57;21;;;41.1;;
22515;SDS011;11424;48.860;9.624;2023-11-22T15:07:57;21.4;;;42.6;;
22515;SDS011;11424;48.860;9.624;2023-11-22T15:12:57;26.9;;;65.2;;
22515;SDS011;11424;48.860;9.624;2023-11-22T15:17:57;22;;;49.6;;
22515;SDS011;11424;48.860;9.624;2023-11-22T15:22:57;18.3;;;40.6;;
22515;SDS011;11424;48.860;9.624;2023-11-22T15:27:57;20.4;;;45.1;;
22515;SDS011;11424;48.860;9.624;2023-11-22T15:32:57;17.9;;;38.3;;
22515;SDS011;11424;48.860;9.624;2023-11-22T15:37:57;14.5;;;22.7;;
22515;SDS011;11424;48.860;9.624;2023-11-22T15:42:57;21.8;;;45.9;;
22515;SDS011;11424;48.860;9.624;2023-11-22T15:47:57;21.9;;;43;;
22515;SDS011;11424;48.860;9.624;2023-11-22T15:52:57;21;;;42;;
22515;SDS011;11424;48.860;9.624;2023-11-22T15:57:57;24.1;;;46.8;;
22515;SDS011;11424;48.860;9.624;2023-11-22T16:02:57;21.6;;;40.7;;
22515;SDS011;11424;48.860;9.624;2023-11-22T16:07:57;23.7;;;47.8;;
22515;SDS011;11424;48.860;9.624;2023-11-22T16:12:57;22.5;;;45.7;;
22515;SDS011;11424;48.860;9.624;2023-11-22T16:17:57;24.9;;;45.4;;
22515;SDS011;11424;48.860;9.624;2023-11-22T16:22:57;19.1;;;30.4;;
22515;SDS011;11424;48.860;9.624;2023-11-22T16:27:57;16.6;;;23.7;;
22515;SDS011;11424;48.860;9.624;2023-11-22T16:32:57;18.8;;;34;;
22515;SDS011;11424;48.860;9.624;2023-11-22T16:37:57;18.2;;;34.2;;
22515;SDS011;11424;48.860;9.624;2023-11-22T16:42:57;24.1;;;47.5;;
22515;SDS011;11424;48.860;9.624;2023-11-22T16:47:57;22.9;;;49.6;;
22515;SDS011;11424;48.860;9.624;2023-11-22T16:52:57;23.8;;;51.5;;
22515;SDS011;11424;48.860;9.624;2023-11-22T16:57:57;22.5;;;46.7;;
22515;SDS011;11424;48.860;9.624;2023-11-22T17:02:57;21.6;;;38.8;;
22515;SDS011;11424;48.860;9.624;2023-11-22T17:07:57;16.8;;;24;;
22515;SDS011;11424;48.860;9.624;2023-11-22T17:12:57;18.8;;;26.4;;
22515;SDS011;11424;48.860;9.624;2023-11-22T17:17:57;18.1;;;24.7;;
22515;SDS011;11424;48.860;9.624;2023-11-22T17:22:57;21.6;;;45.2;;
22515;SDS011;11424;48.860;9.624;2023-11-22T17:27:57;23.4;;;50.8;;
22515;SDS011;11424;48.860;9.624;2023-11-22T17:32:57;23.1;;;51.9;;
22515;SDS011;11424;48.860;9.624;2023-11-22T17:37:57;21.3;;;45.9;;
22515;SDS011;11424;48.860;9.624;2023-11-22T17:42:57;25.3;;;52.4;;
22515;SDS011;11424;48.860;9.624;2023-11-22T17:47:57;16.1;;;23.2;;
22515;SDS011;11424;48.860;9.624;2023-11-22T17:52:57;18.9;;;28.2;;
22515;SDS011;11424;48.860;9.624;2023-11-22T17:57:57;22.9;;;35.7;;
22515;SDS011;11424;48.860;9.624;2023-11-22T18:02:57;23.8;;;48.9;;
22515;SDS011;11424;48.860;9.624;2023-11-22T18:07:57;22.5;;;43.6;;
22515;SDS011;11424;48.860;9.624;2023-11-22T18:12:57;19.3;;;38.3;;
22515;SDS011;11424;48.860;9.624;2023-11-22T18:17:57;19.7;;;40.4;;
22515;SDS011;11424;48.860;9.624;2023-11-22T18:22:57;17.5;;;36.3;;
22515;SDS011;11424;48.860;9.624;2023-11-22T18:27:57;19.6;;;44.2;;
22515;SDS011;11424;48.860;9.624;2023-11-22T18:32:57;13.5;;;16.5;;
22515;SDS011;11424;48.860;9.624;2023-11-22T18:37:57;12.9;;;18.4;;
22515;SDS011;11424;48.860;9.624;2023-11-22T18:42:57;18.6;;;38.2;;
22515;SDS011;11424;48.860;9.624;2023-11-22T18:47:57;18.7;;;35.8;;
22515;SDS011;11424;48.860;9.624;2023-11-22T18:52:57;21.9;;;47.6;;
22515;SDS011;11424;48.860;9.624;2023-11-22T18:57:57;15.5;;;33.4;;
22515;SDS011;11424;48.860;9.624;2023-11-22T19:02:57;20.4;;;46.4;;
22515;SDS011;11424;48.860;9.624;2023-11-22T19:07:57;18.8;;;37.2;;
22515;SDS011;11424;48.860;9.624;2023-11-22T19:12:57;19.7;;;36.9;;
22515;SDS011;11424;48.860;9.624;2023-11-22T19:17:57;13.6;;;17.5;;
22515;SDS011;11424;48.860;9.624;2023-11-22T19:22:57;25.7;;;52.4;;
22515;SDS011;11424;48.860;9.624;2023-11-22T19:27:57;19;;;40.5;;
22515;SDS011;11424;48.860;9.624;2023-11-22T19:32:57;18.2;;;46.3;;
22515;SDS011;11424;48.860;9.624;2023-11-22T19:37:57;12.6;;;35.7;;
22515;SDS011;11424;48.860;9.624;2023-11-22T19:42:57;13.8;;;37.8;;
22515;SDS011;11424;48.860;9.624;2023-11-22T19:47:57;11.8;;;31.6;;
22515;SDS011;11424;48.860;9.624;2023-11-22T19:52:57;18.2;;;55.3;;
22515;SDS011;11424;48.860;9.624;2023-11-22T19:57:57;17.4;;;50.4;;
22515;SDS011;11424;48.860;9.624;2023-11-22T20:02:57;13.2;;;34.8;;
22515;SDS011;11424;48.860;9.624;2023-11-22T20:07:57;12.2;;;31.4;;
22515;SDS011;11424;48.860;9.624;2023-11-22T20:12:57;14.9;;;43.5;;
22515;SDS011;11424;48.860;9.624;2023-11-22T20:17:57;14.4;;;39.4;;
22515;SDS011;11424;48.860;9.624;2023-11-22T20:22:57;13.6;;;35.1;;
22515;SDS011;11424;48.860;9.624;2023-11-22T20:27:57;10.9;;;28.1;;
22515;SDS011;11424;48.860;9.624;2023-11-22T20:32:57;11.9;;;29.2;;
22515;SDS011;11424;48.860;9.624;2023-11-22T20:37:57;14.1;;;39.1;;
22515;SDS011;11424;48.860;9.624;2023-11-22T20:42:57;13.9;;;28.7;;
22515;SDS011;11424;48.860;9.624;2023-11-22T20:47:57;11.2;;;14.5;;
22515;SDS011;11424;48.860;9.624;2023-11-22T20:52:57;10;;;13.3;;
22515;SDS011;11424;48.860;9.624;2023-11-22T20:57:57;10.5;;;13.9;;
22515;SDS011;11424;48.860;9.624;2023-11-22T21:02:57;14.1;;;38.3;;
22515;SDS011;11424;48.860;9.624;2023-11-22T21:07:57;14.6;;;40.3;;
22515;SDS011;11424;48.860;9.624;2023-11-22T21:12:57;13.1;;;35.4;;
22515;SDS011;11424;48.860;9.624;2023-11-22T21:17:57;14.4;;;38.5;;
22515;SDS011;11424;48.860;9.624;2023-11-22T21:22:57;12.4;;;31;;
22515;SDS011;11424;48.860;9.624;2023-11-22T21:27:57;12.4;;;16.5;;
22515;SDS011;11424;48.860;9.624;2023-11-22T21:32:57;12.4;;;15.1;;
22515;SDS011;11424;48.860;9.624;2023-11-22T21:37:57;10.4;;;12.3;;
22515;SDS011;11424;48.860;9.624;2023-11-22T21:42:57;12.7;;;31.7;;
22515;SDS011;11424;48.860;9.624;2023-11-22T21:47:57;12;;;30.8;;
22515;SDS011;11424;48.860;9.624;2023-11-22T21:52:57;13.3;;;33.8;;
22515;SDS011;11424;48.860;9.624;2023-11-22T21:57:57;13.3;;;33.8;;
22515;SDS011;11424;48.860;9.624;2023-11-22T22:02:57;13.2;;;32.5;;
22515;SDS011;11424;48.860;9.624;2023-11-22T22:07:57;11.3;;;26.8;;
22515;SDS011;11424;48.860;9.624;2023-11-22T22:12:57;9.1;;;12.7;;
22515;SDS011;11424;48.860;9.624;2023-11-22T22:17:57;8;;;11.1;;
22515;SDS011;11424;48.860;9.624;2023-11-22T22:22:57;12.6;;;34.5;;
22515;SDS011;11424;48.860;9.624;2023-11-22T22:27:57;12;;;33.5;;
22515;SDS011;11424;48.860;9.624;2023-11-22T22:32:57;11.1;;;29.6;;
22515;SDS011;11424;48.860;9.624;2023-11-22T22:37:57;11.7;;;32.3;;
22515;SDS011;11424;48.860;9.624;2023-11-22T22:42:57;10.4;;;24;;
22515;SDS011;11424;48.860;9.624;2023-11-22T22:47:57;11.5;;;28.2;;
22515;SDS011;11424;48.860;9.624;2023-11-22T22:52:57;10.9;;;25.4;;
22515;SDS011;11424;48.860;9.624;2023-11-22T22:57:57;5.6;;;7.9;;
22515;SDS011;11424;48.860;9.624;2023-11-22T23:02:57;10;;;20.5;;
22515;SDS011;11424;48.860;9.624;2023-11-22T23:07:57;9.5;;;20.6;;
22515;SDS011;11424;48.860;9.624;2023-11-22T23:12:57;10.5;;;23.6;;
22515;SDS011;11424;48.860;9.624;2023-11-22T23:17:57;9.2;;;18.9;;
22515;SDS011;11424;48.860;9.624;2023-11-22T23:22:57;9.9;;;23;;
22515;SDS011;11424;48.860;9.624;2023-11-22T23:27:57;9.6;;;19.7;;
22515;SDS011;11424;48.860;9.624;2023-11-22T23:32:57;9.7;;;21.3;;
22515;SDS011;11424;48.860;9.624;2023-11-22T23:37:57;9.4;;;19.8;;
22515;SDS011;11424;48.860;9.624;2023-11-22T23:42:57;8.8;;;18.4;;
22515;SDS011;11424;48.860;9.624;2023-11-22T23:47:57;9.1;;;19.9;;
22515;SDS011;11424;48.860;9.624;2023-11-22T23:52:57;10.4;;;28.3;;
22515;SDS011;11424;48.860;9.624;2023-11-22T23:57:57;10.5;;;29;;
